Time;durP1;ratioP1;P1;durP2;ratioP2;P2;SDS_P1;SDS_P2;PMS_P1;PMS_P2;Temp;Humidity;BMP_temperature;BMP_pressure;BME280_temperature;BME280_humidity;BME280_pressure;Samples;Min_cycle;Max_cycle;Signal;HPM_P1;HPM_P2
2023/06/26 00:00:48;;;;;;;58.03;2.83;;;;;;;;;;5029995;28;20480;-68
2023/06/26 00:03:15;;;;;;;57.00;2.20;;;;;;;;;;5030647;28;20469;-69
2023/06/26 00:05:43;;;;;;;57.37;2.80;;;;;;;;;;5030545;28;20451;-69
2023/06/26 00:08:10;;;;;;;58.30;2.97;;;;;;;;;;5030985;28;20453;-69
2023/06/26 00:10:37;;;;;;;57.17;2.70;;;;;;;;;;5030196;28;20813;-69
2023/06/26 00:13:04;;;;;;;62.10;3.17;;;;;;;;;;5030747;28;20448;-68
2023/06/26 00:15:32;;;;;;;57.00;2.47;;;;;;;;;;5030577;28;20940;-69
2023/06/26 00:18:00;;;;;;;56.97;2.10;;;;;;;;;;5030861;28;20449;-69
2023/06/26 00:20:27;;;;;;;57.17;2.70;;;;;;;;;;5030047;28;20971;-69
2023/06/26 00:22:55;;;;;;;56.97;2.80;;;;;;;;;;5030500;28;20456;-69
2023/06/26 00:25:22;;;;;;;57.20;2.20;;;;;;;;;;5030481;28;20496;-69
2023/06/26 00:27:49;;;;;;;57.90;2.93;;;;;;;;;;5030543;28;20964;-69
2023/06/26 00:30:16;;;;;;;57.17;2.33;;;;;;;;;;5033702;28;20455;-69
2023/06/26 00:32:45;;;;;;;57.00;2.40;;;;;;;;;;5034218;28;20825;-68
2023/06/26 00:35:12;;;;;;;57.90;3.70;;;;;;;;;;5034290;28;20469;-68
2023/06/26 00:37:39;;;;;;;57.60;2.97;;;;;;;;;;5034163;28;20483;-68
2023/06/26 00:40:06;;;;;;;58.13;3.20;;;;;;;;;;5033322;28;20484;-68
2023/06/26 00:42:33;;;;;;;56.77;2.00;;;;;;;;;;5034165;28;20453;-69
2023/06/26 00:45:01;;;;;;;57.07;2.20;;;;;;;;;;5033908;28;20473;-69
2023/06/26 00:47:28;;;;;;;56.97;2.10;;;;;;;;;;5033693;28;20965;-68
2023/06/26 00:49:57;;;;;;;57.70;2.83;;;;;;;;;;5033146;28;20449;-69
2023/06/26 00:52:24;;;;;;;57.10;2.50;;;;;;;;;;5033901;28;20463;-68
2023/06/26 00:54:52;;;;;;;56.87;2.40;;;;;;;;;;5033580;28;20483;-69
2023/06/26 00:57:19;;;;;;;57.17;2.40;;;;;;;;;;5033866;28;20448;-69
2023/06/26 00:59:46;;;;;;;57.17;2.80;;;;;;;;;;5032677;28;20463;-68
2023/06/26 01:02:19;;;;;;;56.70;2.30;;;;;;;;;;5033864;28;20452;-69
2023/06/26 01:04:47;;;;;;;57.27;2.47;;;;;;;;;;5033533;28;20480;-69
2023/06/26 01:07:18;;;;;;;57.07;2.40;;;;;;;;;;5033533;28;20826;-69
2023/06/26 01:09:46;;;;;;;57.60;3.23;;;;;;;;;;5033074;28;20806;-68
2023/06/26 01:12:13;;;;;;;56.77;2.40;;;;;;;;;;5033356;28;20514;-69
2023/06/26 01:14:40;;;;;;;57.10;2.77;;;;;;;;;;5033326;28;20997;-69
2023/06/26 01:17:11;;;;;;;58.67;2.97;;;;;;;;;;5033237;28;20451;-68
2023/06/26 01:19:39;;;;;;;57.43;2.90;;;;;;;;;;5032568;28;20945;-69
2023/06/26 01:22:15;;;;;;;57.10;2.47;;;;;;;;;;5033219;28;20495;-69
2023/06/26 01:24:45;;;;;;;56.93;2.23;;;;;;;;;;5033063;28;20483;-69
2023/06/26 01:27:14;;;;;;;57.37;2.83;;;;;;;;;;5033048;28;20455;-69
2023/06/26 01:29:42;;;;;;;57.17;2.20;;;;;;;;;;5032611;28;20824;-69
2023/06/26 01:32:09;;;;;;;57.27;2.47;;;;;;;;;;5030608;28;20449;-68
2023/06/26 01:34:37;;;;;;;57.30;2.50;;;;;;;;;;5033208;28;20473;-69
2023/06/26 01:37:04;;;;;;;56.87;2.10;;;;;;;;;;5032548;28;20452;-69
2023/06/26 01:39:31;;;;;;;57.97;3.00;;;;;;;;;;5032035;28;20456;-68
2023/06/26 01:41:58;;;;;;;57.07;2.57;;;;;;;;;;5032501;28;20489;-69
2023/06/26 01:44:30;;;;;;;57.60;2.87;;;;;;;;;;5032631;28;20483;-68
2023/06/26 01:47:01;;;;;;;57.77;3.47;;;;;;;;;;5038821;28;20459;-68
2023/06/26 01:49:32;;;;;;;57.50;2.70;;;;;;;;;;5051649;28;20463;-68
2023/06/26 01:52:03;;;;;;;57.27;2.60;;;;;;;;;;5052475;28;20449;-69
2023/06/26 01:54:32;;;;;;;56.97;2.73;;;;;;;;;;5052285;28;20809;-69
2023/06/26 01:57:00;;;;;;;57.90;3.23;;;;;;;;;;5046292;28;20483;-69
2023/06/26 01:59:30;;;;;;;57.73;2.90;;;;;;;;;;5041305;28;20535;-69
2023/06/26 02:01:57;;;;;;;57.10;2.60;;;;;;;;;;5052658;28;20479;-69
2023/06/26 02:04:24;;;;;;;57.67;2.70;;;;;;;;;;5052206;28;20468;-68
2023/06/26 02:06:51;;;;;;;58.00;3.93;;;;;;;;;;5052164;28;20825;-69
2023/06/26 02:09:18;;;;;;;56.93;2.13;;;;;;;;;;5051419;28;20459;-68
2023/06/26 02:11:46;;;;;;;56.93;2.30;;;;;;;;;;5052404;28;20458;-69
2023/06/26 02:14:13;;;;;;;57.30;3.37;;;;;;;;;;5052287;28;20468;-69
2023/06/26 02:16:41;;;;;;;58.43;3.67;;;;;;;;;;5052174;28;20448;-68
2023/06/26 02:19:08;;;;;;;56.93;2.20;;;;;;;;;;5051389;28;20454;-69
2023/06/26 02:21:35;;;;;;;57.73;2.87;;;;;;;;;;5052377;28;20484;-69
2023/06/26 02:24:02;;;;;;;56.90;2.80;;;;;;;;;;5051809;28;20534;-69
2023/06/26 02:26:30;;;;;;;57.20;2.80;;;;;;;;;;5051803;28;20455;-69
2023/06/26 02:28:57;;;;;;;59.17;3.20;;;;;;;;;;5051690;28;20471;-69
2023/06/26 02:31:24;;;;;;;57.50;2.80;;;;;;;;;;5051805;28;20452;-69
2023/06/26 02:33:52;;;;;;;57.10;2.40;;;;;;;;;;5051987;28;20813;-69
2023/06/26 02:36:19;;;;;;;59.13;3.43;;;;;;;;;;5051774;28;20455;-69
2023/06/26 02:38:46;;;;;;;56.87;2.50;;;;;;;;;;5050977;28;20471;-69
2023/06/26 02:41:13;;;;;;;57.00;2.90;;;;;;;;;;5051802;28;20875;-69
2023/06/26 02:43:40;;;;;;;58.47;3.07;;;;;;;;;;5051777;28;20464;-68
2023/06/26 02:46:08;;;;;;;57.90;3.00;;;;;;;;;;5051528;28;20453;-69
2023/06/26 02:48:35;;;;;;;57.20;2.70;;;;;;;;;;5050917;28;20479;-69
2023/06/26 02:51:03;;;;;;;57.07;2.40;;;;;;;;;;5051292;28;20451;-69
2023/06/26 02:53:31;;;;;;;58.57;3.17;;;;;;;;;;5050942;28;20464;-69
2023/06/26 02:55:58;;;;;;;58.93;2.93;;;;;;;;;;5051350;28;20468;-69
2023/06/26 02:58:25;;;;;;;57.00;2.60;;;;;;;;;;5051345;28;20456;-68
2023/06/26 03:00:53;;;;;;;57.40;2.83;;;;;;;;;;5050915;28;20534;-69
2023/06/26 03:03:20;;;;;;;57.27;2.47;;;;;;;;;;5051347;28;20992;-69
2023/06/26 03:05:47;;;;;;;57.40;2.77;;;;;;;;;;5051400;28;20455;-68
2023/06/26 03:08:16;;;;;;;57.10;2.40;;;;;;;;;;5051514;28;20895;-68
2023/06/26 03:10:43;;;;;;;58.20;3.03;;;;;;;;;;5050874;28;20440;-68
2023/06/26 03:13:10;;;;;;;57.20;2.50;;;;;;;;;;5051082;28;20455;-69
2023/06/26 03:15:37;;;;;;;57.20;2.50;;;;;;;;;;5051322;28;20456;-68
2023/06/26 03:18:04;;;;;;;56.63;2.20;;;;;;;;;;5050785;28;20455;-68
2023/06/26 03:20:31;;;;;;;57.60;3.67;;;;;;;;;;5050250;28;20451;-69
2023/06/26 03:22:59;;;;;;;56.93;2.10;;;;;;;;;;5051248;28;20455;-69
2023/06/26 03:25:27;;;;;;;57.77;2.90;;;;;;;;;;5051002;28;20478;-68
2023/06/26 03:27:54;;;;;;;57.00;2.30;;;;;;;;;;5051227;28;20448;-69
2023/06/26 03:30:21;;;;;;;56.87;2.33;;;;;;;;;;5050253;28;20547;-69
2023/06/26 03:32:48;;;;;;;58.53;3.20;;;;;;;;;;5051113;28;20475;-69
2023/06/26 03:35:15;;;;;;;56.87;2.30;;;;;;;;;;5051055;28;20472;-69
2023/06/26 03:37:42;;;;;;;57.17;2.60;;;;;;;;;;5051207;28;20444;-69
2023/06/26 03:40:10;;;;;;;57.70;3.00;;;;;;;;;;5050294;28;20452;-69
2023/06/26 03:42:39;;;;;;;57.10;2.53;;;;;;;;;;5050748;28;21026;-69
2023/06/26 03:45:06;;;;;;;57.20;3.03;;;;;;;;;;5050968;28;20468;-69
2023/06/26 03:47:33;;;;;;;57.67;2.57;;;;;;;;;;5042778;28;20461;-69
2023/06/26 03:50:01;;;;;;;57.10;2.87;;;;;;;;;;5049873;28;20453;-69
2023/06/26 03:52:30;;;;;;;58.20;2.53;;;;;;;;;;5050499;28;20817;-68
2023/06/26 03:54:57;;;;;;;57.60;2.80;;;;;;;;;;5050387;28;20478;-69
2023/06/26 03:57:24;;;;;;;57.23;3.20;;;;;;;;;;5041280;28;20446;-68
2023/06/26 03:59:53;;;;;;;56.77;2.60;;;;;;;;;;5030153;28;20813;-69
2023/06/26 04:02:20;;;;;;;58.07;2.40;;;;;;;;;;5030674;28;20488;-69
2023/06/26 04:04:47;;;;;;;57.00;2.30;;;;;;;;;;5034066;28;20465;-69
2023/06/26 04:07:14;;;;;;;57.57;2.27;;;;;;;;;;5034863;28;20455;-69
2023/06/26 04:09:41;;;;;;;57.07;2.70;;;;;;;;;;5033903;28;20453;-69
2023/06/26 04:12:08;;;;;;;56.90;2.60;;;;;;;;;;5034751;28;20942;-69
2023/06/26 04:14:36;;;;;;;56.73;2.73;;;;;;;;;;5034664;28;20473;-69
2023/06/26 04:17:04;;;;;;;56.90;2.23;;;;;;;;;;5034694;28;20456;-69
2023/06/26 04:19:31;;;;;;;57.00;2.20;;;;;;;;;;5033629;28;20984;-69
2023/06/26 04:21:59;;;;;;;56.97;2.40;;;;;;;;;;5034564;28;20487;-69
2023/06/26 04:24:26;;;;;;;57.10;2.50;;;;;;;;;;5034401;28;20898;-69
2023/06/26 04:26:53;;;;;;;64.33;3.67;;;;;;;;;;5034480;28;20456;-68
2023/06/26 04:29:21;;;;;;;57.57;2.60;;;;;;;;;;5033598;28;20468;-69
2023/06/26 04:31:48;;;;;;;57.00;2.40;;;;;;;;;;5034145;28;20450;-68
2023/06/26 04:34:16;;;;;;;56.93;2.00;;;;;;;;;;5034111;28;20837;-69
2023/06/26 04:36:47;;;;;;;57.20;3.10;;;;;;;;;;5034217;28;20449;-69
2023/06/26 04:39:15;;;;;;;57.40;2.87;;;;;;;;;;5033271;28;20915;-69
2023/06/26 04:41:42;;;;;;;57.20;2.70;;;;;;;;;;5034204;28;20489;-68
2023/06/26 04:44:09;;;;;;;56.87;2.30;;;;;;;;;;5033968;28;20480;-69
2023/06/26 04:46:36;;;;;;;56.67;2.30;;;;;;;;;;5034155;28;20813;-69
2023/06/26 04:49:04;;;;;;;57.30;2.60;;;;;;;;;;5033237;28;20528;-69
2023/06/26 04:51:32;;;;;;;57.97;2.60;;;;;;;;;;5033873;28;20445;-68
2023/06/26 04:53:59;;;;;;;56.87;2.20;;;;;;;;;;5034143;28;20474;-70
2023/06/26 04:56:26;;;;;;;57.27;2.90;;;;;;;;;;5033417;28;20461;-69
2023/06/26 04:58:53;;;;;;;57.47;2.60;;;;;;;;;;5032965;28;20984;-69
2023/06/26 05:01:20;;;;;;;56.87;2.20;;;;;;;;;;5033689;28;20511;-68
2023/06/26 05:03:48;;;;;;;57.80;2.80;;;;;;;;;;5033642;28;20469;-68
2023/06/26 05:06:15;;;;;;;56.87;2.20;;;;;;;;;;5033300;28;20455;-69
2023/06/26 05:08:43;;;;;;;57.60;3.33;;;;;;;;;;5033088;28;20457;-69
2023/06/26 05:11:10;;;;;;;59.97;3.10;;;;;;;;;;5033768;28;20646;-69
2023/06/26 05:13:37;;;;;;;57.00;2.70;;;;;;;;;;5033457;28;20488;-68
2023/06/26 05:16:04;;;;;;;56.87;2.30;;;;;;;;;;5032406;28;20619;-69
2023/06/26 05:18:32;;;;;;;57.17;2.50;;;;;;;;;;5032988;28;20456;-68
2023/06/26 05:20:59;;;;;;;57.97;2.50;;;;;;;;;;5033141;28;20456;-68
2023/06/26 05:23:26;;;;;;;56.97;2.70;;;;;;;;;;5033040;28;20989;-69
2023/06/26 05:25:55;;;;;;;56.80;2.40;;;;;;;;;;5033268;28;20458;-69
2023/06/26 05:28:24;;;;;;;56.77;2.20;;;;;;;;;;5033018;28;20453;-69
2023/06/26 05:30:51;;;;;;;56.60;2.37;;;;;;;;;;5032423;28;20460;-68
2023/06/26 05:33:19;;;;;;;57.50;2.50;;;;;;;;;;5033374;28;20461;-69
2023/06/26 05:35:47;;;;;;;57.50;3.47;;;;;;;;;;5033110;28;20446;-69
2023/06/26 05:38:14;;;;;;;58.03;2.90;;;;;;;;;;5033186;28;20445;-68
2023/06/26 05:40:42;;;;;;;57.43;2.50;;;;;;;;;;5032446;28;20794;-69
2023/06/26 05:43:10;;;;;;;57.40;2.90;;;;;;;;;;5032555;28;20857;-69
2023/06/26 05:45:38;;;;;;;57.20;2.80;;;;;;;;;;5032950;28;20813;-69
2023/06/26 05:48:05;;;;;;;57.10;2.60;;;;;;;;;;5039327;28;20501;-68
2023/06/26 05:50:32;;;;;;;57.03;2.90;;;;;;;;;;5051776;28;20514;-69
2023/06/26 05:53:00;;;;;;;56.33;2.30;;;;;;;;;;5052220;28;20945;-68
2023/06/26 05:55:28;;;;;;;56.97;2.40;;;;;;;;;;5042646;28;20560;-69
2023/06/26 05:57:55;;;;;;;56.70;2.50;;;;;;;;;;5032928;28;20801;-69
2023/06/26 06:00:26;;;;;;;56.90;2.60;;;;;;;;;;5031723;28;20531;-69
2023/06/26 06:02:54;;;;;;;57.57;3.00;;;;;;;;;;5032559;28;20476;-69
2023/06/26 06:05:21;;;;;;;57.30;2.63;;;;;;;;;;5032589;28;20463;-69
2023/06/26 06:07:48;;;;;;;56.77;2.40;;;;;;;;;;5032693;28;20535;-69
2023/06/26 06:10:15;;;;;;;57.77;2.73;;;;;;;;;;5031754;28;20923;-69
2023/06/26 06:12:42;;;;;;;56.97;2.23;;;;;;;;;;5032299;28;20445;-69
2023/06/26 06:15:09;;;;;;;62.90;4.20;;;;;;;;;;5032043;28;20495;-69
2023/06/26 06:17:38;;;;;;;56.83;2.30;;;;;;;;;;5032376;28;20460;-69
2023/06/26 06:20:06;;;;;;;57.30;2.70;;;;;;;;;;5031709;28;20452;-69
2023/06/26 06:22:33;;;;;;;58.13;2.83;;;;;;;;;;5033537;28;20937;-68
2023/06/26 06:25:00;;;;;;;57.37;2.97;;;;;;;;;;5051801;28;20866;-68
2023/06/26 06:27:27;;;;;;;57.70;2.57;;;;;;;;;;5051287;28;20459;-68
2023/06/26 06:29:54;;;;;;;57.23;2.53;;;;;;;;;;5050923;28;20833;-68
2023/06/26 06:32:21;;;;;;;58.40;3.20;;;;;;;;;;5051412;28;20441;-69
2023/06/26 06:34:50;;;;;;;56.93;2.03;;;;;;;;;;5051740;28;20472;-69
2023/06/26 06:37:17;;;;;;;57.50;2.50;;;;;;;;;;5051936;28;20452;-68
2023/06/26 06:39:44;;;;;;;56.67;2.60;;;;;;;;;;5050972;28;20455;-69
2023/06/26 06:42:11;;;;;;;57.17;2.37;;;;;;;;;;5051380;28;20476;-68
2023/06/26 06:44:38;;;;;;;58.33;3.20;;;;;;;;;;5051647;28;20494;-69
2023/06/26 06:47:06;;;;;;;57.67;3.50;;;;;;;;;;5051609;28;20444;-70
2023/06/26 06:49:33;;;;;;;57.23;2.70;;;;;;;;;;5050969;28;20448;-69
2023/06/26 06:52:01;;;;;;;56.60;2.20;;;;;;;;;;5051685;28;20455;-69
2023/06/26 06:54:29;;;;;;;57.47;3.30;;;;;;;;;;5051325;28;20472;-69
2023/06/26 06:56:56;;;;;;;57.20;3.27;;;;;;;;;;5051091;28;20554;-69
2023/06/26 06:59:23;;;;;;;57.10;2.47;;;;;;;;;;5050890;28;20555;-69
2023/06/26 07:01:50;;;;;;;57.23;3.03;;;;;;;;;;5051553;28;20811;-69
2023/06/26 07:04:17;;;;;;;57.30;3.03;;;;;;;;;;5051481;28;20627;-69
2023/06/26 07:06:44;;;;;;;56.53;2.50;;;;;;;;;;5051136;28;20449;-69
2023/06/26 07:09:12;;;;;;;57.37;2.87;;;;;;;;;;5050456;28;20455;-69
2023/06/26 07:11:39;;;;;;;58.63;2.70;;;;;;;;;;5051411;28;20802;-69
2023/06/26 07:14:07;;;;;;;57.77;2.90;;;;;;;;;;5051166;28;20475;-69
2023/06/26 07:16:34;;;;;;;56.77;2.40;;;;;;;;;;5051179;28;20475;-69
2023/06/26 07:19:01;;;;;;;57.23;2.70;;;;;;;;;;5050671;28;20448;-69
2023/06/26 07:21:28;;;;;;;56.70;2.30;;;;;;;;;;5051088;28;20456;-69
2023/06/26 07:23:55;;;;;;;56.90;2.43;;;;;;;;;;5050588;28;20483;-69
2023/06/26 07:26:24;;;;;;;57.60;3.20;;;;;;;;;;5051151;28;20444;-69
2023/06/26 07:28:51;;;;;;;56.90;2.47;;;;;;;;;;5050262;28;20454;-70
2023/06/26 07:31:18;;;;;;;57.90;3.37;;;;;;;;;;5050942;28;20458;-70
2023/06/26 07:33:45;;;;;;;57.97;2.77;;;;;;;;;;5050801;28;20491;-70
2023/06/26 07:36:12;;;;;;;57.37;2.57;;;;;;;;;;5051013;28;20448;-70
2023/06/26 07:38:40;;;;;;;57.00;2.23;;;;;;;;;;5051841;28;20463;-70
2023/06/26 07:41:07;;;;;;;56.87;2.30;;;;;;;;;;5055018;28;20476;-70
2023/06/26 07:43:35;;;;;;;57.37;2.90;;;;;;;;;;5055011;28;20491;-71
2023/06/26 07:46:02;;;;;;;57.30;2.60;;;;;;;;;;5055142;28;20451;-72
2023/06/26 07:48:29;;;;;;;56.60;2.50;;;;;;;;;;5048662;28;20475;-71
2023/06/26 07:50:56;;;;;;;57.97;3.60;;;;;;;;;;5054627;28;20650;-71
2023/06/26 07:53:24;;;;;;;58.60;3.70;;;;;;;;;;5054537;28;20472;-72
2023/06/26 07:55:51;;;;;;;56.90;2.87;;;;;;;;;;5041804;28;20544;-71
2023/06/26 07:58:18;;;;;;;58.10;2.50;;;;;;;;;;5034916;28;20916;-71
2023/06/26 08:00:46;;;;;;;58.07;3.13;;;;;;;;;;5034130;28;20457;-71
2023/06/26 08:03:13;;;;;;;59.00;2.43;;;;;;;;;;5035045;28;20497;-71
2023/06/26 08:05:42;;;;;;;57.40;2.53;;;;;;;;;;5034432;28;20453;-71
2023/06/26 08:08:09;;;;;;;57.53;2.73;;;;;;;;;;5034628;28;20539;-72
2023/06/26 08:10:36;;;;;;;56.20;2.17;;;;;;;;;;5034068;28;20445;-71
2023/06/26 08:13:03;;;;;;;58.30;2.40;;;;;;;;;;5034676;28;20449;-71
2023/06/26 08:15:30;;;;;;;57.30;2.60;;;;;;;;;;5034734;28;20448;-71
2023/06/26 08:17:58;;;;;;;56.37;2.30;;;;;;;;;;5034376;28;20460;-71
2023/06/26 08:20:26;;;;;;;56.77;2.23;;;;;;;;;;5034014;28;20460;-72
2023/06/26 08:22:54;;;;;;;56.23;2.17;;;;;;;;;;5034530;28;20477;-71
2023/06/26 08:25:21;;;;;;;58.50;2.42;;;;;;;;;;5033122;28;20456;-72
2023/06/26 08:27:48;;;;;;;56.37;2.83;;;;;;;;;;5034608;28;20301;-72
2023/06/26 08:30:16;;;;;;;57.87;2.50;;;;;;;;;;5034457;28;20460;-72
2023/06/26 08:32:43;;;;;;;57.00;2.70;;;;;;;;;;5034200;28;20462;-71
2023/06/26 08:35:12;;;;;;;57.10;2.10;;;;;;;;;;5034561;28;20849;-72
2023/06/26 08:37:39;;;;;;;57.30;2.43;;;;;;;;;;5033918;28;20464;-72
2023/06/26 08:40:08;;;;;;;56.20;2.10;;;;;;;;;;5033498;28;20482;-70
2023/06/26 08:42:35;;;;;;;56.63;2.17;;;;;;;;;;5039274;28;20515;-69
2023/06/26 08:45:03;;;;;;;57.47;2.70;;;;;;;;;;5053553;28;20972;-70
2023/06/26 08:47:31;;;;;;;56.90;2.80;;;;;;;;;;5054669;28;20533;-70
2023/06/26 08:50:02;;;;;;;56.83;2.57;;;;;;;;;;5053844;28;20462;-70
2023/06/26 08:52:32;;;;;;;56.70;2.50;;;;;;;;;;5036250;28;20450;-70
2023/06/26 08:55:00;;;;;;;56.60;2.23;;;;;;;;;;5051075;28;20476;-70
2023/06/26 08:57:28;;;;;;;57.10;2.40;;;;;;;;;;5054455;28;20837;-70
2023/06/26 08:59:55;;;;;;;56.40;2.10;;;;;;;;;;5054335;28;20470;-70
2023/06/26 09:02:22;;;;;;;57.93;2.60;;;;;;;;;;5054444;28;20916;-70
2023/06/26 09:04:49;;;;;;;56.87;2.23;;;;;;;;;;5054505;28;20475;-70
2023/06/26 09:07:16;;;;;;;57.07;2.27;;;;;;;;;;5054550;28;20510;-70
2023/06/26 09:09:45;;;;;;;57.23;2.73;;;;;;;;;;5053394;28;20444;-70
2023/06/26 09:12:12;;;;;;;57.37;2.10;;;;;;;;;;5054105;28;20545;-70
2023/06/26 09:14:40;;;;;;;56.77;2.40;;;;;;;;;;5053890;28;20993;-70
2023/06/26 09:17:07;;;;;;;56.87;2.13;;;;;;;;;;5054070;28;20448;-70
2023/06/26 09:19:37;;;;;;;56.23;1.90;;;;;;;;;;5053110;28;20463;-70
2023/06/26 09:22:04;;;;;;;56.07;1.90;;;;;;;;;;5053782;28;20448;-70
2023/06/26 09:24:32;;;;;;;57.17;2.50;;;;;;;;;;5054046;28;20858;-70
2023/06/26 09:27:00;;;;;;;57.07;3.30;;;;;;;;;;5053836;28;20444;-70
2023/06/26 09:29:29;;;;;;;56.60;2.70;;;;;;;;;;5053465;28;20467;-70
2023/06/26 09:31:58;;;;;;;56.47;2.00;;;;;;;;;;5054603;28;20471;-71
2023/06/26 09:34:31;;;;;;;57.27;2.50;;;;;;;;;;5054075;28;21031;-70
2023/06/26 09:36:59;;;;;;;57.87;2.50;;;;;;;;;;5053507;28;20448;-70
2023/06/26 09:39:26;;;;;;;56.40;2.50;;;;;;;;;;5052122;28;20462;-70
2023/06/26 09:41:56;;;;;;;57.10;2.37;;;;;;;;;;5052779;28;20449;-71
2023/06/26 09:44:25;;;;;;;56.87;2.27;;;;;;;;;;5052827;28;20484;-71
2023/06/26 09:46:53;;;;;;;56.43;2.10;;;;;;;;;;5051276;28;20476;-71
2023/06/26 09:49:20;;;;;;;56.43;2.40;;;;;;;;;;5048890;28;20533;-71
2023/06/26 09:51:47;;;;;;;56.30;2.33;;;;;;;;;;5052276;28;20963;-71
2023/06/26 09:54:18;;;;;;;56.60;2.40;;;;;;;;;;5052923;28;20464;-70
2023/06/26 09:56:45;;;;;;;56.37;2.30;;;;;;;;;;5032454;28;20461;-70
2023/06/26 09:59:12;;;;;;;56.57;2.77;;;;;;;;;;5032232;28;20449;-71
2023/06/26 10:01:43;;;;;;;56.30;2.10;;;;;;;;;;5032060;28;20453;-71
2023/06/26 10:04:10;;;;;;;55.97;1.70;;;;;;;;;;5032279;28;20493;-71
2023/06/26 10:06:38;;;;;;;56.83;2.33;;;;;;;;;;5031299;28;20457;-71
2023/06/26 10:09:06;;;;;;;55.93;1.80;;;;;;;;;;5032004;28;20445;-71
2023/06/26 10:11:36;;;;;;;56.40;2.13;;;;;;;;;;5032453;28;20456;-70
2023/06/26 10:14:05;;;;;;;56.20;2.10;;;;;;;;;;5032357;28;20469;-71
2023/06/26 10:16:33;;;;;;;56.10;2.60;;;;;;;;;;5032267;28;20476;-71
2023/06/26 10:19:04;;;;;;;56.40;2.10;;;;;;;;;;5031983;28;20532;-70
2023/06/26 10:21:33;;;;;;;56.50;2.30;;;;;;;;;;5032467;28;20448;-70
2023/06/26 10:24:00;;;;;;;56.50;2.17;;;;;;;;;;5032080;28;20500;-71
2023/06/26 10:26:28;;;;;;;55.87;1.70;;;;;;;;;;5032143;28;20465;-71
2023/06/26 10:28:56;;;;;;;55.70;2.00;;;;;;;;;;5031317;28;20946;-71
2023/06/26 10:31:26;;;;;;;56.37;2.43;;;;;;;;;;5031968;28;20499;-71
2023/06/26 10:33:53;;;;;;;55.57;2.13;;;;;;;;;;5032067;28;20472;-71
2023/06/26 10:36:28;;;;;;;55.90;2.37;;;;;;;;;;5031798;28;20961;-71
2023/06/26 10:38:57;;;;;;;55.67;2.07;;;;;;;;;;5031174;28;20445;-71
2023/06/26 10:41:24;;;;;;;55.70;2.10;;;;;;;;;;5031757;28;20464;-71
2023/06/26 10:43:52;;;;;;;56.57;3.07;;;;;;;;;;5031574;28;20497;-71
2023/06/26 10:46:20;;;;;;;55.60;2.20;;;;;;;;;;5031800;28;20870;-70
2023/06/26 10:49:00;;;;;;;55.90;2.43;;;;;;;;;;5030987;28;20528;-71
2023/06/26 10:51:29;;;;;;;56.50;2.57;;;;;;;;;;5030386;28;20453;-71
2023/06/26 10:53:56;;;;;;;56.27;2.33;;;;;;;;;;5031641;28;20468;-71
2023/06/26 10:56:42;;;;;;;55.87;2.00;;;;;;;;;;5031400;28;20459;-71
2023/06/26 10:59:16;;;;;;;56.20;2.13;;;;;;;;;;5031140;28;20492;-71
2023/06/26 11:01:44;;;;;;;56.00;2.33;;;;;;;;;;5031715;28;20429;-71
2023/06/26 11:04:11;;;;;;;56.13;2.40;;;;;;;;;;5031584;28;20499;-70
2023/06/26 11:06:40;;;;;;;56.43;2.83;;;;;;;;;;5031310;28;20552;-70
2023/06/26 11:09:14;;;;;;;55.50;1.90;;;;;;;;;;5030882;28;20548;-71
2023/06/26 11:11:59;;;;;;;55.20;1.63;;;;;;;;;;5031706;28;20436;-71
2023/06/26 11:14:27;;;;;;;55.60;1.90;;;;;;;;;;5030611;28;20994;-71
2023/06/26 11:16:56;;;;;;;55.37;2.13;;;;;;;;;;5031410;28;20449;-71
2023/06/26 11:19:23;;;;;;;55.50;2.17;;;;;;;;;;5030584;28;20452;-71
2023/06/26 11:21:52;;;;;;;55.53;2.03;;;;;;;;;;5031120;28;20449;-71
2023/06/26 11:24:19;;;;;;;56.73;3.20;;;;;;;;;;5032463;28;20525;-71
2023/06/26 11:26:47;;;;;;;56.07;2.87;;;;;;;;;;5050784;28;20452;-70
2023/06/26 11:29:14;;;;;;;55.80;2.47;;;;;;;;;;5050320;28;20444;-71
2023/06/26 11:31:43;;;;;;;55.37;2.33;;;;;;;;;;5050891;28;20471;-71
2023/06/26 11:34:11;;;;;;;55.77;2.30;;;;;;;;;;5050859;28;20977;-71
2023/06/26 11:36:39;;;;;;;56.03;2.63;;;;;;;;;;5051128;28;20452;-71
2023/06/26 11:39:07;;;;;;;55.23;2.07;;;;;;;;;;5050160;28;20945;-71
2023/06/26 11:41:35;;;;;;;56.90;2.63;;;;;;;;;;5051043;28;20441;-71
2023/06/26 11:44:02;;;;;;;55.80;2.63;;;;;;;;;;5045961;28;20488;-70
2023/06/26 11:46:29;;;;;;;55.93;2.40;;;;;;;;;;5050246;28;20440;-71
2023/06/26 11:48:57;;;;;;;55.33;2.20;;;;;;;;;;5045982;28;20452;-71
2023/06/26 11:51:24;;;;;;;55.80;2.50;;;;;;;;;;5050512;28;20457;-71
2023/06/26 11:53:52;;;;;;;55.60;2.40;;;;;;;;;;5050524;28;20468;-72
2023/06/26 19:57:47;;;;;;;56.80;2.10;;;;;;;;;;4950483;29;20967;-71
